sensor_id;sensor_type;location;lat;lon;timestamp;pressure;altitude;pressure_sealevel;temperature;humidity
21361;BME280;10839;43.206;23.550;2023-04-30T00:00:24;96918.19;;;11.04;94.39
21361;BME280;10839;43.206;23.550;2023-04-30T00:02:50;96914.84;;;11.02;94.69
21361;BME280;10839;43.206;23.550;2023-04-30T00:05:16;96908.03;;;11.06;93.87
21361;BME280;10839;43.206;23.550;2023-04-30T00:07:42;96912.78;;;11.04;93.99
21361;BME280;10839;43.206;23.550;2023-04-30T00:10:11;96916.75;;;11.08;92.86
21361;BME280;10839;43.206;23.550;2023-04-30T00:12:37;96903.22;;;10.95;94.13
21361;BME280;10839;43.206;23.550;2023-04-30T00:15:04;96915.28;;;11.05;93.45
21361;BME280;10839;43.206;23.550;2023-04-30T00:17:30;96919.03;;;11.11;92.81
21361;BME280;10839;43.206;23.550;2023-04-30T00:19:55;96918.38;;;10.96;94.00
21361;BME280;10839;43.206;23.550;2023-04-30T00:22:21;96906.31;;;10.79;94.66
21361;BME280;10839;43.206;23.550;2023-04-30T00:24:47;96918.16;;;10.91;94.20
21361;BME280;10839;43.206;23.550;2023-04-30T00:27:13;96914.56;;;10.77;95.00
21361;BME280;10839;43.206;23.550;2023-04-30T00:29:38;96904.03;;;10.76;94.85
21361;BME280;10839;43.206;23.550;2023-04-30T00:32:05;96904.06;;;10.95;93.43
21361;BME280;10839;43.206;23.550;2023-04-30T00:34:30;96911.91;;;10.84;94.20
21361;BME280;10839;43.206;23.550;2023-04-30T00:36:56;96906.50;;;10.71;95.15
21361;BME280;10839;43.206;23.550;2023-04-30T00:39:22;96910.03;;;10.78;94.61
21361;BME280;10839;43.206;23.550;2023-04-30T00:41:48;96915.00;;;10.81;94.32
21361;BME280;10839;43.206;23.550;2023-04-30T00:44:14;96910.19;;;10.70;94.84
21361;BME280;10839;43.206;23.550;2023-04-30T00:46:40;96903.97;;;10.63;95.56
21361;BME280;10839;43.206;23.550;2023-04-30T00:49:06;96899.06;;;10.73;94.69
21361;BME280;10839;43.206;23.550;2023-04-30T00:51:34;96904.81;;;10.70;94.90
21361;BME280;10839;43.206;23.550;2023-04-30T00:54:01;96896.50;;;10.65;95.06
21361;BME280;10839;43.206;23.550;2023-04-30T00:56:31;96905.03;;;10.75;93.94
21361;BME280;10839;43.206;23.550;2023-04-30T00:58:56;96905.28;;;10.86;92.74
21361;BME280;10839;43.206;23.550;2023-04-30T01:01:26;96908.31;;;10.64;94.62
21361;BME280;10839;43.206;23.550;2023-04-30T01:03:56;96903.78;;;10.71;93.96
21361;BME280;10839;43.206;23.550;2023-04-30T01:06:23;96904.03;;;10.76;93.40
21361;BME280;10839;43.206;23.550;2023-04-30T01:08:50;96905.63;;;10.64;93.77
21361;BME280;10839;43.206;23.550;2023-04-30T01:11:27;96904.47;;;10.86;92.70
21361;BME280;10839;43.206;23.550;2023-04-30T01:20:00;96902.75;;;10.72;93.69
21361;BME280;10839;43.206;23.550;2023-04-30T01:28:02;96897.69;;;10.43;95.04
21361;BME280;10839;43.206;23.550;2023-04-30T01:30:33;96894.81;;;10.51;94.97
21361;BME280;10839;43.206;23.550;2023-04-30T01:33:01;96899.56;;;10.49;94.89
21361;BME280;10839;43.206;23.550;2023-04-30T01:41:16;96886.16;;;10.62;93.58
21361;BME280;10839;43.206;23.550;2023-04-30T01:46:29;96889.06;;;10.67;93.65
21361;BME280;10839;43.206;23.550;2023-04-30T01:52:15;96879.97;;;10.61;93.18
21361;BME280;10839;43.206;23.550;2023-04-30T01:54:56;96887.59;;;10.58;93.75
21361;BME280;10839;43.206;23.550;2023-04-30T01:57:32;96888.66;;;10.70;93.14
21361;BME280;10839;43.206;23.550;2023-04-30T01:59:59;96887.25;;;10.74;92.33
21361;BME280;10839;43.206;23.550;2023-04-30T02:02:25;96884.13;;;10.70;92.22
21361;BME280;10839;43.206;23.550;2023-04-30T02:04:51;96884.13;;;10.77;92.22
21361;BME280;10839;43.206;23.550;2023-04-30T02:07:35;96886.88;;;10.90;90.88
21361;BME280;10839;43.206;23.550;2023-04-30T02:10:04;96892.44;;;10.82;91.48
21361;BME280;10839;43.206;23.550;2023-04-30T02:12:31;96881.66;;;10.75;92.01
21361;BME280;10839;43.206;23.550;2023-04-30T02:14:56;96886.19;;;10.75;92.01
21361;BME280;10839;43.206;23.550;2023-04-30T02:17:23;96890.13;;;10.66;92.95
21361;BME280;10839;43.206;23.550;2023-04-30T02:19:49;96889.88;;;10.61;93.71
21361;BME280;10839;43.206;23.550;2023-04-30T02:22:15;96886.16;;;10.62;93.73
21361;BME280;10839;43.206;23.550;2023-04-30T02:24:41;96883.66;;;10.54;94.54
21361;BME280;10839;43.206;23.550;2023-04-30T02:27:06;96881.78;;;10.48;95.21
21361;BME280;10839;43.206;23.550;2023-04-30T02:29:32;96882.97;;;10.39;95.12
21361;BME280;10839;43.206;23.550;2023-04-30T02:31:58;96891.03;;;10.39;95.45
21361;BME280;10839;43.206;23.550;2023-04-30T02:34:24;96887.31;;;10.40;94.84
21361;BME280;10839;43.206;23.550;2023-04-30T02:36:50;96892.31;;;10.43;94.63
21361;BME280;10839;43.206;23.550;2023-04-30T02:39:16;96893.09;;;10.37;95.29
21361;BME280;10839;43.206;23.550;2023-04-30T02:41:42;96889.34;;;10.31;95.49
21361;BME280;10839;43.206;23.550;2023-04-30T02:44:08;96886.94;;;10.43;94.46
21361;BME280;10839;43.206;23.550;2023-04-30T02:46:33;96888.97;;;10.41;94.63
21361;BME280;10839;43.206;23.550;2023-04-30T02:49:00;96892.06;;;10.38;94.81
21361;BME280;10839;43.206;23.550;2023-04-30T02:51:26;96895.97;;;10.35;95.24
21361;BME280;10839;43.206;23.550;2023-04-30T02:53:52;96894.34;;;10.41;94.70
21361;BME280;10839;43.206;23.550;2023-04-30T02:56:18;96893.16;;;10.50;94.30
21361;BME280;10839;43.206;23.550;2023-04-30T02:58:44;96902.03;;;10.44;93.94
21361;BME280;10839;43.206;23.550;2023-04-30T03:01:11;96902.66;;;10.46;94.01
21361;BME280;10839;43.206;23.550;2023-04-30T03:03:36;96893.31;;;10.42;93.88
21361;BME280;10839;43.206;23.550;2023-04-30T03:06:03;96903.28;;;10.48;93.28
21361;BME280;10839;43.206;23.550;2023-04-30T03:08:29;96906.44;;;10.58;92.68
21361;BME280;10839;43.206;23.550;2023-04-30T03:10:55;96901.25;;;10.50;92.97
21361;BME280;10839;43.206;23.550;2023-04-30T03:13:21;96903.13;;;10.56;92.70
21361;BME280;10839;43.206;23.550;2023-04-30T03:16:00;96908.53;;;10.69;91.69
21361;BME280;10839;43.206;23.550;2023-04-30T03:18:27;96905.25;;;10.80;90.96
21361;BME280;10839;43.206;23.550;2023-04-30T03:20:53;96910.63;;;10.80;90.40
21361;BME280;10839;43.206;23.550;2023-04-30T03:23:19;96903.22;;;10.88;90.04
21361;BME280;10839;43.206;23.550;2023-04-30T03:25:46;96894.94;;;10.90;89.50
21361;BME280;10839;43.206;23.550;2023-04-30T03:28:12;96901.81;;;10.99;89.06
21361;BME280;10839;43.206;23.550;2023-04-30T03:30:38;96898.72;;;11.08;88.38
21361;BME280;10839;43.206;23.550;2023-04-30T03:33:04;96913.03;;;11.22;87.78
21361;BME280;10839;43.206;23.550;2023-04-30T03:35:31;96909.28;;;11.16;88.11
21361;BME280;10839;43.206;23.550;2023-04-30T03:37:59;96903.09;;;11.29;87.70
21361;BME280;10839;43.206;23.550;2023-04-30T03:40:25;96908.09;;;11.45;86.68
21361;BME280;10839;43.206;23.550;2023-04-30T03:42:51;96904.41;;;11.72;84.84
21361;BME280;10839;43.206;23.550;2023-04-30T03:45:17;96913.72;;;11.89;83.80
21361;BME280;10839;43.206;23.550;2023-04-30T03:47:43;96914.34;;;11.98;83.57
21361;BME280;10839;43.206;23.550;2023-04-30T03:50:10;96919.03;;;12.28;81.48
21361;BME280;10839;43.206;23.550;2023-04-30T03:52:36;96923.66;;;13.23;76.65
21361;BME280;10839;43.206;23.550;2023-04-30T03:55:04;96919.22;;;14.15;71.27
21361;BME280;10839;43.206;23.550;2023-04-30T03:57:30;96919.72;;;14.84;67.61
21361;BME280;10839;43.206;23.550;2023-04-30T03:59:56;96915.72;;;15.76;63.53
21361;BME280;10839;43.206;23.550;2023-04-30T04:02:22;96928.31;;;16.57;59.29
21361;BME280;10839;43.206;23.550;2023-04-30T04:04:48;96923.63;;;17.88;54.54
21361;BME280;10839;43.206;23.550;2023-04-30T04:07:16;96930.66;;;18.18;53.51
21361;BME280;10839;43.206;23.550;2023-04-30T04:09:42;96924.16;;;19.60;48.37
21361;BME280;10839;43.206;23.550;2023-04-30T04:12:08;96926.75;;;20.71;46.34
21361;BME280;10839;43.206;23.550;2023-04-30T04:14:35;96923.00;;;20.77;45.46
21361;BME280;10839;43.206;23.550;2023-04-30T04:17:01;96932.97;;;21.65;43.85
21361;BME280;10839;43.206;23.550;2023-04-30T04:19:30;96937.47;;;22.31;42.06
21361;BME280;10839;43.206;23.550;2023-04-30T04:21:56;96931.59;;;23.82;40.17
21361;BME280;10839;43.206;23.550;2023-04-30T04:24:24;96936.53;;;20.99;47.67
21361;BME280;10839;43.206;23.550;2023-04-30T04:26:50;96935.59;;;19.57;52.23
21361;BME280;10839;43.206;23.550;2023-04-30T04:29:17;96930.25;;;17.08;60.18
21361;BME280;10839;43.206;23.550;2023-04-30T04:31:46;96938.66;;;15.02;70.71
21361;BME280;10839;43.206;23.550;2023-04-30T04:34:13;96935.00;;;14.18;77.20
21361;BME280;10839;43.206;23.550;2023-04-30T04:36:39;96943.63;;;13.84;80.25
21361;BME280;10839;43.206;23.550;2023-04-30T04:39:06;96944.38;;;13.35;84.38
21361;BME280;10839;43.206;23.550;2023-04-30T04:41:33;96947.53;;;12.81;88.80
21361;BME280;10839;43.206;23.550;2023-04-30T04:44:01;96939.63;;;12.86;89.13
21361;BME280;10839;43.206;23.550;2023-04-30T04:46:30;96939.44;;;12.81;89.80
21361;BME280;10839;43.206;23.550;2023-04-30T04:48:57;96942.94;;;12.88;89.71
21361;BME280;10839;43.206;23.550;2023-04-30T04:51:23;96944.97;;;12.93;90.12
21361;BME280;10839;43.206;23.550;2023-04-30T04:53:49;96945.34;;;13.10;89.33
21361;BME280;10839;43.206;23.550;2023-04-30T04:56:15;96952.75;;;13.58;86.03
21361;BME280;10839;43.206;23.550;2023-04-30T04:58:41;96942.75;;;13.90;83.75
21361;BME280;10839;43.206;23.550;2023-04-30T05:01:07;96949.31;;;13.45;86.12
21361;BME280;10839;43.206;23.550;2023-04-30T05:03:34;96947.31;;;13.34;86.54
21361;BME280;10839;43.206;23.550;2023-04-30T05:06:04;96941.56;;;13.79;83.27
21361;BME280;10839;43.206;23.550;2023-04-30T05:08:30;96948.22;;;13.83;78.91
21361;BME280;10839;43.206;23.550;2023-04-30T05:10:56;96935.88;;;13.63;79.78
21361;BME280;10839;43.206;23.550;2023-04-30T05:13:22;96938.47;;;13.76;78.61
21361;BME280;10839;43.206;23.550;2023-04-30T05:15:52;96944.94;;;13.75;77.26
21361;BME280;10839;43.206;23.550;2023-04-30T05:18:18;96944.16;;;13.68;77.80
21361;BME280;10839;43.206;23.550;2023-04-30T05:20:45;96942.47;;;13.73;77.54
21361;BME280;10839;43.206;23.550;2023-04-30T05:23:11;96947.25;;;13.96;76.15
21361;BME280;10839;43.206;23.550;2023-04-30T05:25:37;96945.22;;;13.91;75.86
21361;BME280;10839;43.206;23.550;2023-04-30T05:28:03;96950.25;;;13.88;75.99
21361;BME280;10839;43.206;23.550;2023-04-30T05:30:29;96940.16;;;14.01;74.93
21361;BME280;10839;43.206;23.550;2023-04-30T05:32:56;96943.00;;;14.06;75.29
21361;BME280;10839;43.206;23.550;2023-04-30T05:35:22;96949.34;;;14.43;75.42
21361;BME280;10839;43.206;23.550;2023-04-30T05:37:49;96945.25;;;14.59;76.68
21361;BME280;10839;43.206;23.550;2023-04-30T05:40:15;96940.47;;;14.54;79.72
21361;BME280;10839;43.206;23.550;2023-04-30T05:42:41;96940.84;;;14.15;83.92
21361;BME280;10839;43.206;23.550;2023-04-30T05:45:09;96949.66;;;13.24;91.23
21361;BME280;10839;43.206;23.550;2023-04-30T05:47:37;96953.59;;;13.21;92.30
21361;BME280;10839;43.206;23.550;2023-04-30T05:50:03;96957.44;;;13.01;90.43
21361;BME280;10839;43.206;23.550;2023-04-30T05:52:29;96966.19;;;12.89;89.52
21361;BME280;10839;43.206;23.550;2023-04-30T05:54:55;96948.59;;;12.80;89.64
21361;BME280;10839;43.206;23.550;2023-04-30T05:57:21;96963.78;;;13.26;87.35
21361;BME280;10839;43.206;23.550;2023-04-30T05:59:47;96964.16;;;12.78;89.94
21361;BME280;10839;43.206;23.550;2023-04-30T06:02:12;96961.31;;;12.60;91.94
21361;BME280;10839;43.206;23.550;2023-04-30T06:04:39;96951.31;;;12.74;90.92
21361;BME280;10839;43.206;23.550;2023-04-30T06:07:04;96951.03;;;13.33;87.93
21361;BME280;10839;43.206;23.550;2023-04-30T06:09:30;96960.34;;;12.93;89.92
21361;BME280;10839;43.206;23.550;2023-04-30T06:11:56;96962.25;;;13.36;87.84
21361;BME280;10839;43.206;23.550;2023-04-30T06:14:23;96968.06;;;13.40;86.65
21361;BME280;10839;43.206;23.550;2023-04-30T06:16:49;96957.75;;;13.86;85.54
21361;BME280;10839;43.206;23.550;2023-04-30T06:19:15;96958.53;;;14.42;80.66
21361;BME280;10839;43.206;23.550;2023-04-30T06:21:41;96956.16;;;14.52;79.40
21361;BME280;10839;43.206;23.550;2023-04-30T06:24:10;96967.69;;;15.31;75.92
21361;BME280;10839;43.206;23.550;2023-04-30T06:26:36;96963.88;;;15.69;73.46
21361;BME280;10839;43.206;23.550;2023-04-30T06:29:02;96968.78;;;15.60;73.40
21361;BME280;10839;43.206;23.550;2023-04-30T06:31:27;96960.94;;;15.82;72.39
21361;BME280;10839;43.206;23.550;2023-04-30T06:33:53;96966.69;;;16.15;69.37
21361;BME280;10839;43.206;23.550;2023-04-30T06:36:19;96963.88;;;16.56;66.79
21361;BME280;10839;43.206;23.550;2023-04-30T06:38:45;96960.28;;;16.90;65.99
21361;BME280;10839;43.206;23.550;2023-04-30T06:41:12;96970.03;;;16.63;64.89
21361;BME280;10839;43.206;23.550;2023-04-30T06:43:38;96974.13;;;16.42;65.55
21361;BME280;10839;43.206;23.550;2023-04-30T06:46:04;96972.88;;;16.04;66.94
21361;BME280;10839;43.206;23.550;2023-04-30T06:48:31;96985.72;;;16.49;66.09
21361;BME280;10839;43.206;23.550;2023-04-30T06:50:57;96979.66;;;16.13;68.20
21361;BME280;10839;43.206;23.550;2023-04-30T06:53:23;96983.63;;;15.99;72.38
21361;BME280;10839;43.206;23.550;2023-04-30T06:55:49;96987.47;;;16.90;67.43
21361;BME280;10839;43.206;23.550;2023-04-30T06:58:15;96987.94;;;16.87;65.86
21361;BME280;10839;43.206;23.550;2023-04-30T07:00:43;96987.44;;;17.64;62.85
21361;BME280;10839;43.206;23.550;2023-04-30T07:03:09;96985.28;;;18.77;58.85
21361;BME280;10839;43.206;23.550;2023-04-30T07:05:34;96985.84;;;18.96;53.98
21361;BME280;10839;43.206;23.550;2023-04-30T07:08:01;96980.28;;;19.72;51.87
21361;BME280;10839;43.206;23.550;2023-04-30T07:10:28;96989.66;;;21.08;47.68
21361;BME280;10839;43.206;23.550;2023-04-30T07:12:54;96990.06;;;22.03;44.57
21361;BME280;10839;43.206;23.550;2023-04-30T07:15:21;96991.75;;;22.44;43.36
21361;BME280;10839;43.206;23.550;2023-04-30T07:17:46;96988.72;;;22.36;43.70
21361;BME280;10839;43.206;23.550;2023-04-30T07:20:12;96991.34;;;24.15;40.61
21361;BME280;10839;43.206;23.550;2023-04-30T07:22:42;96996.69;;;25.60;38.29
21361;BME280;10839;43.206;23.550;2023-04-30T07:25:12;97001.13;;;26.40;36.86
21361;BME280;10839;43.206;23.550;2023-04-30T07:27:38;96998.34;;;26.59;35.82
21361;BME280;10839;43.206;23.550;2023-04-30T07:30:05;96990.78;;;27.15;34.96
21361;BME280;10839;43.206;23.550;2023-04-30T07:32:33;96982.75;;;27.45;34.44
21361;BME280;10839;43.206;23.550;2023-04-30T07:34:59;96985.91;;;28.07;33.07
21361;BME280;10839;43.206;23.550;2023-04-30T07:37:25;96981.63;;;27.74;32.93
21361;BME280;10839;43.206;23.550;2023-04-30T07:39:51;96979.47;;;27.57;32.98
21361;BME280;10839;43.206;23.550;2023-04-30T07:42:17;96984.06;;;27.75;32.56
21361;BME280;10839;43.206;23.550;2023-04-30T07:44:42;96986.13;;;27.97;32.61
21361;BME280;10839;43.206;23.550;2023-04-30T07:47:08;96988.38;;;27.81;32.70
21361;BME280;10839;43.206;23.550;2023-04-30T07:49:34;96985.41;;;28.54;32.29
21361;BME280;10839;43.206;23.550;2023-04-30T07:52:00;96984.34;;;26.87;33.88
21361;BME280;10839;43.206;23.550;2023-04-30T07:54:26;96980.31;;;27.57;33.19
21361;BME280;10839;43.206;23.550;2023-04-30T07:56:52;96986.31;;;28.14;32.52
21361;BME280;10839;43.206;23.550;2023-04-30T07:59:18;96994.84;;;28.53;32.11
21361;BME280;10839;43.206;23.550;2023-04-30T08:01:45;96995.69;;;28.98;31.68
21361;BME280;10839;43.206;23.550;2023-04-30T08:04:12;96992.31;;;28.65;32.19
21361;BME280;10839;43.206;23.550;2023-04-30T08:06:37;96988.09;;;29.34;30.65
21361;BME280;10839;43.206;23.550;2023-04-30T08:09:03;96988.22;;;29.07;31.27
21361;BME280;10839;43.206;23.550;2023-04-30T08:11:29;96983.28;;;29.17;31.63
21361;BME280;10839;43.206;23.550;2023-04-30T08:13:55;96978.19;;;29.41;31.08
21361;BME280;10839;43.206;23.550;2023-04-30T08:16:22;96975.97;;;29.30;31.33
21361;BME280;10839;43.206;23.550;2023-04-30T08:18:48;96983.38;;;29.34;31.59
21361;BME280;10839;43.206;23.550;2023-04-30T08:21:15;96975.81;;;29.65;30.79
21361;BME280;10839;43.206;23.550;2023-04-30T08:23:42;96971.88;;;29.58;29.83
21361;BME280;10839;43.206;23.550;2023-04-30T08:26:08;96974.06;;;29.08;30.53
21361;BME280;10839;43.206;23.550;2023-04-30T08:28:34;96969.00;;;30.28;29.57
21361;BME280;10839;43.206;23.550;2023-04-30T08:31:00;96968.25;;;29.49;29.97
21361;BME280;10839;43.206;23.550;2023-04-30T08:33:26;96967.84;;;29.33;29.75
21361;BME280;10839;43.206;23.550;2023-04-30T08:35:52;96958.44;;;29.43;30.39
21361;BME280;10839;43.206;23.550;2023-04-30T08:38:18;96966.88;;;29.68;30.23
21361;BME280;10839;43.206;23.550;2023-04-30T08:40:51;96964.38;;;30.15;29.49
21361;BME280;10839;43.206;23.550;2023-04-30T08:43:18;96963.81;;;30.86;28.35
21361;BME280;10839;43.206;23.550;2023-04-30T08:45:45;96957.16;;;29.18;30.39
21361;BME280;10839;43.206;23.550;2023-04-30T08:48:12;96959.97;;;29.57;29.98
21361;BME280;10839;43.206;23.550;2023-04-30T08:50:42;96965.09;;;30.29;29.57
21361;BME280;10839;43.206;23.550;2023-04-30T08:53:09;96957.50;;;30.03;28.79
21361;BME280;10839;43.206;23.550;2023-04-30T08:55:38;96962.97;;;29.08;30.19
21361;BME280;10839;43.206;23.550;2023-04-30T08:58:04;96966.81;;;28.76;31.05
21361;BME280;10839;43.206;23.550;2023-04-30T09:00:31;96958.78;;;29.50;29.99
21361;BME280;10839;43.206;23.550;2023-04-30T09:02:59;96961.19;;;29.34;30.38
21361;BME280;10839;43.206;23.550;2023-04-30T09:05:25;96958.16;;;28.34;31.77
21361;BME280;10839;43.206;23.550;2023-04-30T09:07:51;96952.81;;;28.51;31.54
21361;BME280;10839;43.206;23.550;2023-04-30T09:10:21;96952.63;;;28.34;31.96
21361;BME280;10839;43.206;23.550;2023-04-30T09:13:08;96961.47;;;28.80;30.97
21361;BME280;10839;43.206;23.550;2023-04-30T09:15:36;96949.03;;;27.71;32.71
21361;BME280;10839;43.206;23.550;2023-04-30T09:18:16;96939.66;;;27.58;33.30
21361;BME280;10839;43.206;23.550;2023-04-30T09:21:00;96945.13;;;27.72;32.95
21361;BME280;10839;43.206;23.550;2023-04-30T09:23:28;96946.69;;;28.05;32.60
21361;BME280;10839;43.206;23.550;2023-04-30T09:25:54;96934.53;;;28.50;32.00
21361;BME280;10839;43.206;23.550;2023-04-30T09:28:22;96936.03;;;27.03;33.16
21361;BME280;10839;43.206;23.550;2023-04-30T09:30:50;96940.78;;;26.84;33.97
21361;BME280;10839;43.206;23.550;2023-04-30T09:33:17;96940.97;;;27.33;33.78
21361;BME280;10839;43.206;23.550;2023-04-30T09:35:43;96930.91;;;27.92;33.37
21361;BME280;10839;43.206;23.550;2023-04-30T09:38:26;96939.03;;;27.47;34.08
21361;BME280;10839;43.206;23.550;2023-04-30T09:40:52;96938.63;;;27.40;32.72
21361;BME280;10839;43.206;23.550;2023-04-30T09:43:18;96936.63;;;25.57;35.28
21361;BME280;10839;43.206;23.550;2023-04-30T09:45:48;96939.56;;;25.42;35.31
21361;BME280;10839;43.206;23.550;2023-04-30T09:48:21;96934.81;;;26.26;34.96
21361;BME280;10839;43.206;23.550;2023-04-30T09:50:49;96934.06;;;27.17;33.95
21361;BME280;10839;43.206;23.550;2023-04-30T09:53:15;96931.41;;;27.12;33.47
21361;BME280;10839;43.206;23.550;2023-04-30T09:55:49;96927.81;;;27.12;34.18
21361;BME280;10839;43.206;23.550;2023-04-30T09:58:16;96929.28;;;26.77;34.42
21361;BME280;10839;43.206;23.550;2023-04-30T10:00:44;96923.03;;;27.17;33.64
21361;BME280;10839;43.206;23.550;2023-04-30T10:03:13;96921.13;;;26.54;34.50
21361;BME280;10839;43.206;23.550;2023-04-30T10:05:43;96928.31;;;27.82;33.53
21361;BME280;10839;43.206;23.550;2023-04-30T10:08:41;96908.31;;;27.35;33.21
21361;BME280;10839;43.206;23.550;2023-04-30T10:11:09;96912.69;;;27.09;33.77
21361;BME280;10839;43.206;23.550;2023-04-30T10:13:53;96906.50;;;27.80;32.87
21361;BME280;10839;43.206;23.550;2023-04-30T10:19:22;96913.59;;;27.18;32.41
21361;BME280;10839;43.206;23.550;2023-04-30T10:21:48;96919.38;;;27.35;32.42
21361;BME280;10839;43.206;23.550;2023-04-30T10:24:15;96926.53;;;26.45;32.96
21361;BME280;10839;43.206;23.550;2023-04-30T10:26:45;96924.00;;;26.30;33.46
21361;BME280;10839;43.206;23.550;2023-04-30T10:29:12;96919.25;;;25.56;35.05
21361;BME280;10839;43.206;23.550;2023-04-30T10:31:40;96927.34;;;25.24;36.46
21361;BME280;10839;43.206;23.550;2023-04-30T10:36:47;96913.03;;;24.41;38.37
21361;BME280;10839;43.206;23.550;2023-04-30T10:39:21;96912.44;;;24.11;38.26
21361;BME280;10839;43.206;23.550;2023-04-30T10:41:48;96911.69;;;25.19;36.53
21361;BME280;10839;43.206;23.550;2023-04-30T10:44:19;96901.56;;;26.18;34.77
21361;BME280;10839;43.206;23.550;2023-04-30T10:46:47;96899.44;;;25.31;35.22
21361;BME280;10839;43.206;23.550;2023-04-30T10:49:13;96906.84;;;24.54;36.36
21361;BME280;10839;43.206;23.550;2023-04-30T10:51:50;96896.63;;;24.60;36.04
21361;BME280;10839;43.206;23.550;2023-04-30T10:54:24;96895.31;;;24.24;35.81
21361;BME280;10839;43.206;23.550;2023-04-30T10:56:50;96881.34;;;24.15;36.82
21361;BME280;10839;43.206;23.550;2023-04-30T10:59:17;96891.31;;;24.06;37.78
21361;BME280;10839;43.206;23.550;2023-04-30T11:01:55;96888.22;;;24.46;37.42
21361;BME280;10839;43.206;23.550;2023-04-30T11:04:21;96890.06;;;24.84;37.11
21361;BME280;10839;43.206;23.550;2023-04-30T11:07:09;96895.47;;;24.94;36.92
21361;BME280;10839;43.206;23.550;2023-04-30T11:09:38;96893.94;;;24.83;37.31
21361;BME280;10839;43.206;23.550;2023-04-30T11:12:10;96890.78;;;24.66;37.83
21361;BME280;10839;43.206;23.550;2023-04-30T11:14:40;96890.94;;;24.51;38.54
21361;BME280;10839;43.206;23.550;2023-04-30T11:17:06;96890.34;;;24.54;38.87
21361;BME280;10839;43.206;23.550;2023-04-30T11:19:33;96888.91;;;24.33;39.42
21361;BME280;10839;43.206;23.550;2023-04-30T11:27:26;96888.81;;;23.66;41.05
21361;BME280;10839;43.206;23.550;2023-04-30T11:29:54;96893.31;;;23.52;41.88
21361;BME280;10839;43.206;23.550;2023-04-30T11:32:22;96886.81;;;23.18;42.37
21361;BME280;10839;43.206;23.550;2023-04-30T11:34:48;96892.28;;;23.81;41.62
21361;BME280;10839;43.206;23.550;2023-04-30T11:37:20;96879.56;;;23.95;41.81
21361;BME280;10839;43.206;23.550;2023-04-30T11:39:47;96888.16;;;23.35;42.62
21361;BME280;10839;43.206;23.550;2023-04-30T11:42:19;96880.88;;;23.01;42.75
21361;BME280;10839;43.206;23.550;2023-04-30T11:44:46;96891.06;;;22.90;43.16
21361;BME280;10839;43.206;23.550;2023-04-30T11:47:12;96883.72;;;22.45;43.29
21361;BME280;10839;43.206;23.550;2023-04-30T11:49:39;96884.28;;;22.37;43.76
21361;BME280;10839;43.206;23.550;2023-04-30T11:52:05;96880.44;;;22.43;42.88
21361;BME280;10839;43.206;23.550;2023-04-30T11:54:35;96891.41;;;22.23;42.38
21361;BME280;10839;43.206;23.550;2023-04-30T11:57:02;96884.78;;;22.74;41.39
21361;BME280;10839;43.206;23.550;2023-04-30T11:59:30;96880.41;;;22.68;41.33
21361;BME280;10839;43.206;23.550;2023-04-30T12:01:57;96878.81;;;22.32;41.24
21361;BME280;10839;43.206;23.550;2023-04-30T12:04:23;96866.63;;;22.89;40.71
21361;BME280;10839;43.206;23.550;2023-04-30T12:06:49;96866.53;;;23.19;40.31
21361;BME280;10839;43.206;23.550;2023-04-30T12:09:16;96868.22;;;23.05;40.42
21361;BME280;10839;43.206;23.550;2023-04-30T12:11:41;96868.84;;;22.87;40.99
21361;BME280;10839;43.206;23.550;2023-04-30T12:14:09;96868.88;;;22.76;41.26
21361;BME280;10839;43.206;23.550;2023-04-30T12:16:42;96866.72;;;22.63;41.25
21361;BME280;10839;43.206;23.550;2023-04-30T12:19:14;96861.78;;;22.65;41.08
21361;BME280;10839;43.206;23.550;2023-04-30T12:21:42;96860.13;;;22.44;41.70
21361;BME280;10839;43.206;23.550;2023-04-30T12:24:17;96870.59;;;22.27;42.05
21361;BME280;10839;43.206;23.550;2023-04-30T12:26:44;96868.91;;;22.46;42.02
21361;BME280;10839;43.206;23.550;2023-04-30T12:29:15;96860.69;;;22.56;40.67
21361;BME280;10839;43.206;23.550;2023-04-30T12:31:42;96861.22;;;22.58;40.37
21361;BME280;10839;43.206;23.550;2023-04-30T12:34:10;96861.06;;;23.09;39.16
21361;BME280;10839;43.206;23.550;2023-04-30T12:36:38;96866.25;;;23.15;39.17
21361;BME280;10839;43.206;23.550;2023-04-30T12:39:11;96855.31;;;23.05;39.75
21361;BME280;10839;43.206;23.550;2023-04-30T12:44:23;96848.44;;;23.08;40.34
21361;BME280;10839;43.206;23.550;2023-04-30T12:46:51;96846.75;;;23.27;39.87
21361;BME280;10839;43.206;23.550;2023-04-30T12:49:28;96850.97;;;23.53;39.49
21361;BME280;10839;43.206;23.550;2023-04-30T12:54:29;96852.00;;;23.67;39.60
21361;BME280;10839;43.206;23.550;2023-04-30T12:57:08;96854.81;;;23.57;39.73
21361;BME280;10839;43.206;23.550;2023-04-30T12:59:39;96842.63;;;23.68;39.59
21361;BME280;10839;43.206;23.550;2023-04-30T13:04:33;96832.00;;;23.95;37.98
21361;BME280;10839;43.206;23.550;2023-04-30T13:07:00;96824.16;;;24.17;37.14
21361;BME280;10839;43.206;23.550;2023-04-30T13:09:27;96828.00;;;23.39;36.49
21361;BME280;10839;43.206;23.550;2023-04-30T13:11:53;96829.66;;;23.35;36.44
21361;BME280;10839;43.206;23.550;2023-04-30T13:14:19;96835.13;;;23.40;37.30
21361;BME280;10839;43.206;23.550;2023-04-30T13:16:45;96842.56;;;23.34;37.63
21361;BME280;10839;43.206;23.550;2023-04-30T13:19:12;96841.34;;;22.97;37.43
21361;BME280;10839;43.206;23.550;2023-04-30T13:21:38;96843.97;;;23.22;37.01
21361;BME280;10839;43.206;23.550;2023-04-30T13:24:04;96838.72;;;23.35;36.28
21361;BME280;10839;43.206;23.550;2023-04-30T13:26:30;96839.63;;;23.64;36.43
21361;BME280;10839;43.206;23.550;2023-04-30T13:28:56;96837.56;;;22.77;37.34
21361;BME280;10839;43.206;23.550;2023-04-30T13:31:21;96830.41;;;22.92;37.23
21361;BME280;10839;43.206;23.550;2023-04-30T13:33:48;96821.50;;;23.15;37.35